Time;durP1;ratioP1;P1;durP2;ratioP2;P2;SDS_P1;SDS_P2;PMS_P1;PMS_P2;Temp;Humidity;BMP_temperature;BMP_pressure;BME280_temperature;BME280_humidity;BME280_pressure;Samples;Min_cycle;Max_cycle;Signal;HPM_P1;HPM_P2
2021/11/23 00:00:39;;;;;;;4.35;1.40;;;;;;;6.52;100.00;101852.00;5027981;28;20041;-67
2021/11/23 00:03:06;;;;;;;2.72;1.77;;;;;;;6.56;100.00;101853.78;5032229;28;20032;-67
2021/11/23 00:05:33;;;;;;;3.97;1.10;;;;;;;6.53;100.00;101843.66;5028941;28;20041;-67
2021/11/23 00:07:59;;;;;;;1.83;1.48;;;;;;;6.49;100.00;101852.56;5024504;28;20038;-67
2021/11/23 00:10:28;;;;;;;1.27;1.13;;;;;;;6.46;100.00;101856.66;5030598;28;20041;-67
2021/11/23 00:12:56;;;;;;;2.10;1.30;;;;;;;6.47;100.00;101852.88;5031288;28;20041;-67
2021/11/23 00:15:22;;;;;;;3.50;1.13;;;;;;;6.52;100.00;101857.34;5024635;28;20045;-67
2021/11/23 00:17:48;;;;;;;2.17;1.35;;;;;;;6.50;100.00;101854.16;5013038;28;20385;-68
2021/11/23 00:20:14;;;;;;;1.77;1.40;;;;;;;6.56;100.00;101858.34;5031190;28;20032;-67
2021/11/23 00:23:00;;;;;;;4.78;1.10;;;;;;;6.58;100.00;101859.59;5013437;28;20080;-67
2021/11/23 00:25:26;;;;;;;4.32;1.33;;;;;;;6.61;100.00;101853.66;4956031;28;20138;-67
2021/11/23 00:27:53;;;;;;;1.58;1.17;;;;;;;6.60;100.00;101856.66;4967026;28;20050;-67
2021/11/23 00:30:19;;;;;;;2.03;1.13;;;;;;;6.67;100.00;101854.34;4945330;28;20050;-67
2021/11/23 00:32:45;;;;;;;2.88;1.13;;;;;;;6.75;100.00;101859.03;4956853;28;20050;-67
2021/11/23 00:35:11;;;;;;;1.67;0.85;;;;;;;6.87;100.00;101862.75;4952700;28;20045;-67
2021/11/23 00:37:36;;;;;;;5.72;1.40;;;;;;;6.96;100.00;101855.63;4951223;28;20050;-67
2021/11/23 00:40:05;;;;;;;2.70;0.88;;;;;;;7.09;100.00;101852.13;4933664;29;20047;-67
2021/11/23 00:42:31;;;;;;;1.75;1.30;;;;;;;7.14;100.00;101848.53;4951302;29;20077;-66
2021/11/23 00:44:56;;;;;;;1.52;1.08;;;;;;;7.16;100.00;101855.16;4955330;28;20137;-67
2021/11/23 00:47:22;;;;;;;5.97;2.50;;;;;;;7.27;100.00;101864.56;4962395;28;20113;-67
2021/11/23 00:49:48;;;;;;;2.20;1.80;;;;;;;7.28;100.00;101862.66;4955509;28;20055;-67
2021/11/23 00:52:13;;;;;;;2.63;1.63;;;;;;;7.35;100.00;101865.75;4949409;29;20131;-67
2021/11/23 00:54:39;;;;;;;3.35;2.17;;;;;;;7.41;100.00;101858.38;4940568;29;20043;-67
2021/11/23 00:57:05;;;;;;;4.68;2.33;;;;;;;7.45;100.00;101846.75;4960260;28;20116;-67
2021/11/23 00:59:33;;;;;;;3.03;1.80;;;;;;;7.41;100.00;101851.13;4949346;28;20066;-67
2021/11/23 01:01:59;;;;;;;3.25;1.90;;;;;;;7.38;100.00;101848.25;4963091;28;20054;-67
2021/11/23 01:04:25;;;;;;;4.90;1.70;;;;;;;7.39;100.00;101847.16;5031141;28;20557;-67
2021/11/23 01:06:50;;;;;;;6.82;2.30;;;;;;;7.45;100.00;101851.31;5030914;28;20054;-68
2021/11/23 01:09:16;;;;;;;2.63;1.75;;;;;;;7.43;100.00;101845.47;5023902;28;20026;-67
2021/11/23 01:11:42;;;;;;;2.63;1.70;;;;;;;7.46;100.00;101844.84;5017480;28;20044;-67
2021/11/23 01:14:08;;;;;;;4.55;2.40;;;;;;;7.53;100.00;101850.59;5029975;28;20025;-67
2021/11/23 01:16:35;;;;;;;5.10;2.72;;;;;;;7.64;100.00;101847.38;5031005;28;20038;-67
2021/11/23 01:19:01;;;;;;;1.92;1.40;;;;;;;7.58;100.00;101853.94;5085042;23;20037;-65
2021/11/23 01:21:27;;;;;;;5.32;2.03;;;;;;;7.59;100.00;101850.16;5017124;28;20045;-64
2021/11/23 01:23:53;;;;;;;2.97;2.03;;;;;;;7.58;100.00;101855.81;5030180;28;20028;-63
2021/11/23 01:26:43;;;;;;;4.00;1.92;;;;;;;7.64;100.00;101851.94;5037449;28;20036;-66
2021/11/23 01:29:10;;;;;;;3.50;2.00;;;;;;;7.64;100.00;101847.38;4951170;28;20051;-67
2021/11/23 01:31:35;;;;;;;4.18;2.03;;;;;;;7.67;100.00;101862.81;4953127;28;20437;-66
2021/11/23 01:34:01;;;;;;;4.57;1.85;;;;;;;7.65;100.00;101864.22;4950365;28;20047;-68
2021/11/23 01:36:27;;;;;;;5.95;2.72;;;;;;;7.68;100.00;101852.91;4942899;29;20078;-66
2021/11/23 01:38:55;;;;;;;4.78;2.33;;;;;;;7.64;100.00;101858.09;4956309;28;20061;-66
2021/11/23 01:41:23;;;;;;;2.95;1.95;;;;;;;7.70;100.00;101856.06;4956292;28;20046;-65
2021/11/23 01:43:48;;;;;;;9.38;3.25;;;;;;;7.78;100.00;101858.03;4952029;28;20035;-66
2021/11/23 01:46:14;;;;;;;5.40;2.53;;;;;;;7.72;100.00;101849.31;4950596;29;20142;-66
2021/11/23 01:48:40;;;;;;;4.53;2.72;;;;;;;7.73;100.00;101845.53;4949901;29;20035;-65
2021/11/23 01:51:06;;;;;;;4.90;2.22;;;;;;;7.75;100.00;101846.00;4949398;28;20039;-67
2021/11/23 01:53:32;;;;;;;4.38;2.63;;;;;;;7.79;100.00;101838.16;4952565;28;20111;-66
2021/11/23 01:55:57;;;;;;;8.70;2.80;;;;;;;7.73;100.00;101831.31;4969186;28;20709;-66
2021/11/23 01:58:23;;;;;;;5.10;2.55;;;;;;;7.74;100.00;101839.06;4966588;28;20038;-67
2021/11/23 02:00:49;;;;;;;5.28;2.72;;;;;;;7.77;100.00;101834.97;4943051;28;20600;-66
2021/11/23 02:03:15;;;;;;;5.32;3.17;;;;;;;7.90;100.00;101844.81;4939756;28;20054;-65
2021/11/23 02:05:41;;;;;;;4.80;2.90;;;;;;;7.90;100.00;101847.50;4964687;28;20058;-66
2021/11/23 02:08:07;;;;;;;6.10;2.78;;;;;;;7.86;100.00;101844.66;5029647;28;20438;-67
2021/11/23 02:10:39;;;;;;;7.97;3.03;;;;;;;7.94;100.00;101851.97;5019554;28;20048;-66
2021/11/23 02:13:06;;;;;;;5.70;2.67;;;;;;;7.91;100.00;101841.06;5028742;28;20091;-66
2021/11/23 02:15:32;;;;;;;9.25;2.35;;;;;;;7.89;100.00;101845.94;5029998;28;20033;-65
2021/11/23 02:17:59;;;;;;;6.82;3.28;;;;;;;7.90;100.00;101851.00;5029388;28;20136;-65
2021/11/23 02:20:25;;;;;;;5.43;2.88;;;;;;;7.92;100.00;101850.69;5022072;28;20042;-65
2021/11/23 02:22:51;;;;;;;6.43;2.78;;;;;;;7.91;100.00;101852.59;5026068;28;20065;-66
2021/11/23 02:25:20;;;;;;;5.95;3.00;;;;;;;8.02;100.00;101840.50;5017916;28;20029;-65
2021/11/23 02:27:49;;;;;;;6.70;3.35;;;;;;;8.08;100.00;101843.81;5029205;28;20033;-66
2021/11/23 02:30:15;;;;;;;8.38;3.80;;;;;;;8.08;100.00;101841.16;5021251;28;20493;-65
2021/11/23 02:32:41;;;;;;;10.43;3.83;;;;;;;8.04;100.00;101837.50;5011681;28;20534;-65
2021/11/23 02:35:09;;;;;;;6.70;2.83;;;;;;;8.12;100.00;101832.19;5008962;28;20029;-67
2021/11/23 02:37:40;;;;;;;7.93;3.22;;;;;;;8.06;100.00;101840.66;5031571;28;20045;-66
2021/11/23 02:40:07;;;;;;;9.75;3.38;;;;;;;8.09;100.00;101835.47;5032918;28;20124;-67
2021/11/23 02:42:35;;;;;;;7.65;3.72;;;;;;;8.16;100.00;101848.44;5031372;28;20041;-66
2021/11/23 02:45:01;;;;;;;9.30;3.28;;;;;;;8.15;100.00;101844.97;5032700;28;20505;-66
2021/11/23 02:47:31;;;;;;;7.82;3.10;;;;;;;8.11;100.00;101840.50;5033770;28;20171;-66
2021/11/23 02:49:57;;;;;;;5.93;2.95;;;;;;;8.11;100.00;101835.16;5032778;28;20045;-66
2021/11/23 02:52:22;;;;;;;6.97;3.53;;;;;;;8.23;100.00;101832.69;5024159;28;20053;-66
2021/11/23 02:55:06;;;;;;;6.97;2.70;;;;;;;8.18;100.00;101835.53;5033277;28;20029;-67
2021/11/23 02:57:33;;;;;;;9.27;3.15;;;;;;;8.17;100.00;101823.19;5024417;28;20136;-66
2021/11/23 03:00:04;;;;;;;6.88;3.05;;;;;;;8.23;100.00;101821.19;5030988;28;20551;-66
2021/11/23 03:02:30;;;;;;;9.43;3.03;;;;;;;8.26;100.00;101829.44;5032529;28;20033;-67
2021/11/23 03:04:57;;;;;;;8.10;4.00;;;;;;;8.24;100.00;101820.88;5027434;28;20453;-66
2021/11/23 03:07:24;;;;;;;7.70;3.08;;;;;;;8.29;100.00;101828.00;5025709;28;20056;-66
2021/11/23 03:09:51;;;;;;;9.45;3.53;;;;;;;8.32;100.00;101830.88;5032119;28;20033;-65
2021/11/23 03:12:22;;;;;;;12.85;3.30;;;;;;;8.28;100.00;101824.56;5032943;28;20043;-68
2021/11/23 03:14:48;;;;;;;6.75;3.13;;;;;;;8.33;100.00;101821.72;5027298;28;20040;-66
2021/11/23 03:17:16;;;;;;;10.13;3.30;;;;;;;8.35;100.00;101816.81;5033312;28;20033;-66
2021/11/23 03:19:46;;;;;;;5.13;2.58;;;;;;;8.34;100.00;101822.50;5032503;28;20048;-66
2021/11/23 03:22:13;;;;;;;11.07;4.53;;;;;;;8.34;100.00;101820.63;5019216;28;20508;-66
2021/11/23 03:24:39;;;;;;;8.52;3.08;;;;;;;8.44;100.00;101819.56;5027452;28;20654;-66
2021/11/23 03:27:07;;;;;;;8.50;3.30;;;;;;;8.39;100.00;101819.69;5030402;28;20045;-67
2021/11/23 03:29:33;;;;;;;7.18;2.95;;;;;;;8.41;100.00;101818.28;5028379;28;20553;-66
2021/11/23 03:32:00;;;;;;;6.40;2.88;;;;;;;8.44;100.00;101809.59;5025009;28;20030;-67
2021/11/23 03:34:26;;;;;;;7.75;3.72;;;;;;;8.39;100.00;101798.22;5031718;28;20029;-66
2021/11/23 03:36:51;;;;;;;7.43;3.13;;;;;;;8.37;100.00;101805.78;5012851;28;20033;-66
2021/11/23 03:39:17;;;;;;;6.18;3.17;;;;;;;8.40;100.00;101805.94;5027022;28;20025;-66
2021/11/23 03:41:42;;;;;;;9.70;3.10;;;;;;;8.39;100.00;101808.94;5034768;28;20685;-67
2021/11/23 03:44:09;;;;;;;10.25;3.78;;;;;;;8.46;100.00;101804.69;5034124;28;20020;-67
2021/11/23 03:46:35;;;;;;;11.50;4.07;;;;;;;8.46;100.00;101804.69;5019566;28;20045;-66
2021/11/23 03:49:01;;;;;;;7.53;3.00;;;;;;;8.50;100.00;101794.91;5017489;28;20026;-68
2021/11/23 03:51:27;;;;;;;8.32;2.95;;;;;;;8.50;100.00;101805.66;5012823;28;20536;-66
2021/11/23 03:53:53;;;;;;;6.30;2.78;;;;;;;8.43;100.00;101804.53;5012366;28;20061;-66
2021/11/23 03:56:19;;;;;;;8.18;3.03;;;;;;;8.49;100.00;101804.09;5012396;28;20476;-66
2021/11/23 03:58:44;;;;;;;8.30;2.72;;;;;;;8.51;100.00;101807.25;5014507;28;20077;-69
2021/11/23 04:01:10;;;;;;;10.32;3.92;;;;;;;8.57;100.00;101811.38;5028122;28;20060;-65
2021/11/23 04:03:37;;;;;;;8.80;3.63;;;;;;;8.49;100.00;101797.94;5031942;28;20498;-66
2021/11/23 04:06:04;;;;;;;12.32;3.28;;;;;;;8.54;100.00;101808.50;5031209;28;20044;-66
2021/11/23 04:08:29;;;;;;;5.97;2.60;;;;;;;8.55;100.00;101794.78;5031857;28;20041;-66
2021/11/23 04:10:55;;;;;;;4.97;2.53;;;;;;;8.56;100.00;101793.69;5028303;28;20029;-68
2021/11/23 04:13:21;;;;;;;7.68;3.75;;;;;;;8.54;100.00;101790.50;5015192;28;20095;-65
2021/11/23 04:15:48;;;;;;;8.00;3.42;;;;;;;8.53;100.00;101794.31;5012581;28;20099;-67
2021/11/23 04:18:13;;;;;;;7.20;2.83;;;;;;;8.48;100.00;101789.06;5025274;28;20442;-68
2021/11/23 04:20:39;;;;;;;10.77;3.15;;;;;;;8.54;100.00;101795.09;5022923;28;20068;-65
2021/11/23 04:23:06;;;;;;;10.82;2.97;;;;;;;8.48;100.00;101797.13;5032001;28;20376;-65
2021/11/23 04:25:31;;;;;;;5.82;2.55;;;;;;;8.45;100.00;101803.13;5032498;28;20037;-66
2021/11/23 04:27:57;;;;;;;8.60;2.85;;;;;;;8.52;100.00;101798.09;5021232;28;20411;-67
2021/11/23 04:30:24;;;;;;;7.25;3.30;;;;;;;8.47;100.00;101810.88;5030376;28;20041;-66
2021/11/23 04:32:51;;;;;;;7.13;2.85;;;;;;;8.49;100.00;101804.09;5032108;28;20034;-66
2021/11/23 04:35:17;;;;;;;6.13;2.67;;;;;;;8.49;100.00;101814.84;5026255;28;20727;-66
2021/11/23 04:37:43;;;;;;;8.82;2.90;;;;;;;8.52;100.00;101822.25;5025717;28;20041;-66
2021/11/23 04:40:11;;;;;;;10.88;3.55;;;;;;;8.57;100.00;101816.75;5031011;28;20380;-67
2021/11/23 04:42:37;;;;;;;8.98;3.13;;;;;;;8.54;100.00;101817.34;5024194;28;20040;-66
2021/11/23 04:45:04;;;;;;;8.10;3.35;;;;;;;8.55;100.00;101832.38;5032070;28;20049;-67
2021/11/23 04:47:30;;;;;;;5.50;2.75;;;;;;;8.56;100.00;101825.09;5031196;28;20116;-65
2021/11/23 04:49:56;;;;;;;9.57;2.80;;;;;;;8.63;100.00;101828.91;5022199;28;20034;-65
2021/11/23 04:52:22;;;;;;;9.75;3.17;;;;;;;8.62;100.00;101821.97;5013669;28;20803;-66
2021/11/23 04:54:47;;;;;;;5.15;2.20;;;;;;;8.64;100.00;101835.88;5032103;28;20041;-66
2021/11/23 04:57:13;;;;;;;5.05;2.03;;;;;;;8.65;100.00;101842.81;5030675;28;20036;-65
2021/11/23 04:59:39;;;;;;;8.88;3.13;;;;;;;8.63;100.00;101834.28;5019701;28;20067;-65
2021/11/23 05:02:04;;;;;;;6.32;2.72;;;;;;;8.65;100.00;101845.50;5030902;28;20116;-66
2021/11/23 05:04:30;;;;;;;6.68;2.55;;;;;;;8.67;100.00;101837.16;5031645;28;20031;-66
2021/11/23 05:06:55;;;;;;;7.35;3.10;;;;;;;8.65;100.00;101840.13;5020451;28;20046;-65
2021/11/23 05:09:21;;;;;;;12.55;3.67;;;;;;;8.69;100.00;101840.31;5030386;28;20095;-66
2021/11/23 05:11:50;;;;;;;6.47;2.80;;;;;;;8.70;100.00;101840.00;5030859;28;20036;-66
2021/11/23 05:14:16;;;;;;;7.82;3.03;;;;;;;8.68;100.00;101839.50;5031318;28;20479;-66
2021/11/23 05:16:42;;;;;;;10.75;2.92;;;;;;;8.75;100.00;101839.06;5023061;28;20052;-66
2021/11/23 05:19:08;;;;;;;6.78;2.85;;;;;;;8.73;100.00;101842.03;5030407;28;20037;-66
2021/11/23 05:21:34;;;;;;;9.75;2.90;;;;;;;8.75;100.00;101847.91;5030418;28;20083;-66
2021/11/23 05:23:59;;;;;;;6.40;2.78;;;;;;;8.73;100.00;101846.66;5030373;28;20103;-66
2021/11/23 05:26:25;;;;;;;8.15;3.30;;;;;;;8.72;100.00;101831.63;5004255;28;20061;-66
2021/11/23 05:28:51;;;;;;;14.75;4.10;;;;;;;8.73;100.00;101827.84;5030467;28;20060;-66
2021/11/23 05:31:17;;;;;;;10.68;3.42;;;;;;;8.76;100.00;101832.56;5022911;28;20587;-66
2021/11/23 05:33:42;;;;;;;12.25;3.22;;;;;;;8.81;100.00;101832.41;5007302;28;20407;-65
2021/11/23 05:36:08;;;;;;;8.13;2.92;;;;;;;8.82;100.00;101828.63;5032231;28;20017;-66
2021/11/23 05:38:34;;;;;;;9.63;3.28;;;;;;;8.81;100.00;101819.78;5029558;28;20118;-65
2021/11/23 05:40:59;;;;;;;10.07;3.17;;;;;;;8.78;100.00;101833.84;5026823;28;20107;-63
2021/11/23 05:43:25;;;;;;;13.60;3.25;;;;;;;8.87;100.00;101834.66;5030251;28;20033;-63
2021/11/23 05:45:50;;;;;;;9.80;3.15;;;;;;;8.83;100.00;101831.00;5026495;28;20040;-63
2021/11/23 05:48:16;;;;;;;5.60;2.20;;;;;;;8.81;100.00;101832.41;5030275;28;20025;-64
2021/11/23 05:50:42;;;;;;;7.15;2.67;;;;;;;8.82;100.00;101829.44;5022865;28;20499;-64
2021/11/23 05:53:08;;;;;;;9.13;3.60;;;;;;;8.84;100.00;101837.97;5009781;28;20034;-64
2021/11/23 05:55:37;;;;;;;9.52;2.58;;;;;;;8.84;100.00;101837.19;5029157;28;20164;-64
2021/11/23 05:58:03;;;;;;;7.32;2.85;;;;;;;8.83;100.00;101841.75;5030084;28;20041;-64
2021/11/23 06:00:29;;;;;;;10.20;3.20;;;;;;;8.86;100.00;101837.66;5026341;28;20183;-65
2021/11/23 06:02:55;;;;;;;9.00;2.95;;;;;;;8.87;100.00;101840.03;5016166;28;20045;-64
2021/11/23 06:05:21;;;;;;;9.60;2.65;;;;;;;8.89;100.00;101835.13;5030226;28;20045;-64
2021/11/23 06:07:47;;;;;;;6.78;3.10;;;;;;;8.90;100.00;101836.69;5022037;28;20025;-63
2021/11/23 06:10:13;;;;;;;5.20;2.05;;;;;;;8.91;100.00;101835.59;5021949;28;20708;-64
2021/11/23 06:12:39;;;;;;;6.50;2.85;;;;;;;8.88;100.00;101841.59;5027050;28;20569;-64
2021/11/23 06:15:09;;;;;;;7.32;2.47;;;;;;;8.93;100.00;101840.66;5000544;28;20030;-64
2021/11/23 06:17:38;;;;;;;5.63;2.00;;;;;;;8.93;100.00;101843.34;5020063;28;20064;-65
2021/11/23 06:20:05;;;;;;;5.07;2.15;;;;;;;8.87;100.00;101850.75;5015243;28;20040;-64
2021/11/23 06:22:34;;;;;;;3.65;2.03;;;;;;;8.88;100.00;101851.56;5023486;28;20033;-63
2021/11/23 06:25:02;;;;;;;5.00;1.73;;;;;;;8.89;100.00;101856.63;4998486;28;20406;-63
2021/11/23 06:27:28;;;;;;;3.25;1.65;;;;;;;8.89;100.00;101863.88;5025582;28;20994;-64
2021/11/23 06:29:54;;;;;;;3.00;1.45;;;;;;;8.91;100.00;101864.34;5024656;28;20417;-63
2021/11/23 06:32:20;;;;;;;5.30;1.85;;;;;;;8.92;100.00;101869.41;5025728;28;20128;-65
2021/11/23 06:34:45;;;;;;;5.07;1.73;;;;;;;8.92;100.00;101868.66;5024185;28;20042;-64
2021/11/23 06:37:11;;;;;;;4.05;1.63;;;;;;;8.93;100.00;101872.91;5028441;28;20116;-64
2021/11/23 06:39:37;;;;;;;9.73;2.30;;;;;;;8.94;100.00;101880.63;5030183;28;20546;-64
2021/11/23 06:42:02;;;;;;;4.30;1.83;;;;;;;8.94;100.00;101869.13;5021597;28;20029;-65
2021/11/23 06:44:28;;;;;;;5.00;1.83;;;;;;;8.98;100.00;101878.13;5030603;28;20037;-64
2021/11/23 06:46:54;;;;;;;3.15;1.75;;;;;;;8.95;100.00;101879.53;5021828;28;20045;-64
2021/11/23 06:49:19;;;;;;;3.60;1.67;;;;;;;8.91;100.00;101875.91;5029226;28;20041;-63
2021/11/23 06:51:45;;;;;;;2.40;1.40;;;;;;;8.91;100.00;101885.84;5029599;28;20418;-64
2021/11/23 06:54:10;;;;;;;3.08;1.50;;;;;;;8.91;100.00;101888.53;5026973;28;20403;-64
2021/11/23 06:56:37;;;;;;;4.95;2.03;;;;;;;8.85;100.00;101882.53;5028594;28;20067;-64
2021/11/23 06:59:04;;;;;;;3.63;1.63;;;;;;;8.78;100.00;101897.50;5030649;28;20506;-63
2021/11/23 07:01:33;;;;;;;5.25;1.77;;;;;;;8.80;100.00;101893.41;5023291;28;20116;-64
2021/11/23 07:03:58;;;;;;;4.63;1.80;;;;;;;8.87;100.00;101896.44;5012939;28;20048;-64
2021/11/23 07:06:24;;;;;;;4.55;1.52;;;;;;;8.88;100.00;101898.00;5030350;28;20042;-64
2021/11/23 07:08:50;;;;;;;6.47;1.48;;;;;;;8.82;100.00;101898.47;5030620;28;20045;-63
2021/11/23 07:11:15;;;;;;;3.97;1.80;;;;;;;8.85;100.00;101893.25;5021402;28;20040;-64
2021/11/23 07:14:06;;;;;;;2.70;1.23;;;;;;;8.86;100.00;101902.13;5029592;28;20030;-64
2021/11/23 07:16:32;;;;;;;2.67;1.30;;;;;;;8.91;100.00;101896.59;4968894;28;20129;-64
2021/11/23 07:18:59;;;;;;;3.15;1.25;;;;;;;8.97;100.00;101895.34;4965055;28;20472;-63
2021/11/23 07:21:25;;;;;;;4.13;1.10;;;;;;;8.91;100.00;101899.28;5154851;23;20050;-66
2021/11/23 07:23:51;;;;;;;4.80;1.25;;;;;;;8.84;100.00;101901.63;5013515;28;20034;-68
2021/11/23 07:26:16;;;;;;;2.83;1.42;;;;;;;8.81;100.00;101896.88;5013997;28;20034;-66
2021/11/23 07:28:42;;;;;;;3.53;1.70;;;;;;;8.74;100.00;101907.28;5010967;28;20068;-66
2021/11/23 07:31:08;;;;;;;3.63;1.17;;;;;;;8.73;100.00;101908.41;5012614;28;20534;-70
2021/11/23 07:33:34;;;;;;;2.30;0.85;;;;;;;8.75;100.00;101908.88;5014471;28;20049;-69
2021/11/23 07:36:00;;;;;;;2.17;1.08;;;;;;;8.70;100.00;101909.81;5003191;28;20061;-69
2021/11/23 07:38:46;;;;;;;3.88;1.38;;;;;;;8.70;100.00;101900.97;4993429;28;20062;-70
2021/11/23 07:41:12;;;;;;;2.00;1.05;;;;;;;8.70;100.00;101909.00;4932925;29;20047;-69
2021/11/23 07:43:39;;;;;;;6.75;1.60;;;;;;;8.72;100.00;101912.97;4933280;29;20052;-68
2021/11/23 07:46:05;;;;;;;4.22;1.58;;;;;;;8.73;100.00;101927.97;4938565;29;20279;-70
2021/11/23 07:48:31;;;;;;;4.65;1.40;;;;;;;8.78;100.00;101924.38;4946296;29;20035;-70
2021/11/23 07:50:56;;;;;;;2.00;1.13;;;;;;;8.83;100.00;101925.00;4937512;29;20522;-69
2021/11/23 07:53:42;;;;;;;5.80;1.40;;;;;;;8.82;100.00;101920.75;4933443;29;20135;-70
2021/11/23 07:56:10;;;;;;;3.63;1.27;;;;;;;8.82;100.00;101925.31;4896091;29;20048;-68
2021/11/23 07:58:36;;;;;;;3.30;1.33;;;;;;;8.81;100.00;101924.53;4893193;29;20052;-70
2021/11/23 08:01:05;;;;;;;3.85;1.30;;;;;;;8.90;100.00;101925.34;4890617;29;20523;-70
2021/11/23 08:03:31;;;;;;;3.33;1.42;;;;;;;8.90;100.00;101932.63;4895638;29;20189;-67
2021/11/23 08:05:57;;;;;;;4.47;1.50;;;;;;;8.99;100.00;101920.81;4895337;29;20189;-66
2021/11/23 08:08:23;;;;;;;3.00;1.60;;;;;;;8.96;100.00;101934.84;4888809;29;20056;-67
2021/11/23 08:10:49;;;;;;;4.68;1.48;;;;;;;9.03;100.00;101927.13;4894461;29;20040;-67
2021/11/23 08:13:16;;;;;;;4.15;1.27;;;;;;;8.99;100.00;101925.38;4895412;29;20194;-66
2021/11/23 08:15:42;;;;;;;2.50;1.25;;;;;;;9.06;100.00;101923.00;4885069;29;20053;-67
2021/11/23 08:18:12;;;;;;;4.80;1.30;;;;;;;9.11;100.00;101928.25;4930378;28;20537;-67
2021/11/23 08:20:38;;;;;;;2.95;1.30;;;;;;;9.03;100.00;101927.13;4954401;28;20050;-69
2021/11/23 08:23:04;;;;;;;5.65;1.55;;;;;;;9.02;100.00;101928.22;4943925;29;20046;-69
2021/11/23 08:25:32;;;;;;;3.63;1.67;;;;;;;9.10;100.00;101927.47;4943486;29;20569;-66
2021/11/23 08:27:57;;;;;;;2.47;1.40;;;;;;;9.04;100.00;101938.66;4952243;29;20072;-67
2021/11/23 08:30:23;;;;;;;1.23;1.02;;;;;;;9.01;100.00;101942.78;4950228;29;20430;-66
2021/11/23 08:32:50;;;;;;;1.50;0.82;;;;;;;9.01;100.00;101953.53;4963393;28;20054;-67
2021/11/23 08:35:16;;;;;;;2.97;1.33;;;;;;;9.10;100.00;101943.59;4993994;28;20384;-66
2021/11/23 08:37:42;;;;;;;5.63;1.13;;;;;;;9.14;100.00;101943.75;5002232;28;20037;-67
2021/11/23 08:40:08;;;;;;;6.13;1.15;;;;;;;9.21;100.00;101948.66;5011086;28;20041;-66
2021/11/23 08:42:34;;;;;;;2.05;1.10;;;;;;;9.28;100.00;101949.78;5011495;28;20480;-67
2021/11/23 08:45:01;;;;;;;1.55;1.02;;;;;;;9.28;100.00;101946.31;5005765;28;20121;-67
2021/11/23 08:47:47;;;;;;;1.77;1.08;;;;;;;9.22;100.00;101951.03;5012792;28;20081;-67
2021/11/23 08:50:13;;;;;;;5.30;0.95;;;;;;;9.23;100.00;101949.94;4948047;29;20058;-69
2021/11/23 08:52:39;;;;;;;4.43;1.20;;;;;;;9.29;100.00;101950.59;4951875;29;20501;-70
2021/11/23 08:55:05;;;;;;;2.20;0.90;;;;;;;9.39;100.00;101950.28;4952212;29;20486;-70
2021/11/23 08:57:32;;;;;;;1.67;0.82;;;;;;;9.45;100.00;101954.38;4951677;29;20062;-70
2021/11/23 09:00:14;;;;;;;1.38;0.98;;;;;;;9.53;100.00;101946.34;4947263;29;20043;-67
2021/11/23 09:02:42;;;;;;;4.63;1.80;;;;;;;9.63;100.00;101953.31;4949465;29;20508;-66
2021/11/23 09:05:10;;;;;;;1.75;1.02;;;;;;;9.75;100.00;101953.47;4951956;29;20059;-68
2021/11/23 09:07:38;;;;;;;2.92;1.10;;;;;;;9.78;100.00;101960.91;4949241;29;20047;-67
2021/11/23 09:10:04;;;;;;;1.25;1.02;;;;;;;9.87;100.00;101962.47;4934654;29;20469;-68
2021/11/23 09:12:30;;;;;;;1.38;0.88;;;;;;;9.93;100.00;101960.41;4952101;29;20523;-67
2021/11/23 09:14:56;;;;;;;1.08;0.70;;;;;;;9.98;100.00;101962.97;4935004;29;20513;-70
2021/11/23 09:17:22;;;;;;;2.10;1.10;;;;;;;9.99;100.00;101959.13;4950259;29;20035;-66
2021/11/23 09:19:48;;;;;;;1.00;0.90;;;;;;;9.92;100.00;101969.59;4950649;29;20110;-67
2021/11/23 09:22:14;;;;;;;1.75;0.90;;;;;;;9.93;100.00;101969.28;4951154;29;20114;-67
2021/11/23 09:24:40;;;;;;;1.73;0.77;;;;;;;9.99;100.00;101972.59;4932153;29;20059;-68
2021/11/23 09:27:08;;;;;;;2.17;1.05;;;;;;;10.02;100.00;101975.47;4978284;28;20049;-68
2021/11/23 09:29:34;;;;;;;1.50;1.00;;;;;;;10.13;100.00;101975.94;5011984;28;20049;-67
2021/11/23 09:31:59;;;;;;;2.03;1.10;;;;;;;10.17;100.00;101974.19;5006721;28;20039;-68
2021/11/23 09:34:26;;;;;;;0.88;0.73;;;;;;;10.10;100.00;101973.91;5011973;28;20472;-67
2021/11/23 09:36:54;;;;;;;1.95;1.67;;;;;;;10.14;100.00;101982.13;5010437;28;20030;-67
2021/11/23 09:39:20;;;;;;;4.60;1.50;;;;;;;10.11;100.00;101982.75;5011427;28;20061;-67
2021/11/23 09:41:46;;;;;;;1.40;0.93;;;;;;;10.08;100.00;101980.69;5004656;28;20088;-67
2021/11/23 09:44:12;;;;;;;5.63;1.42;;;;;;;10.20;100.00;101976.25;5011754;28;20041;-67
2021/11/23 09:46:39;;;;;;;2.95;1.58;;;;;;;10.14;100.00;101979.44;5011261;28;20030;-68
2021/11/23 09:49:07;;;;;;;4.32;1.50;;;;;;;10.11;100.00;101988.13;4974939;28;20030;-67
2021/11/23 09:51:34;;;;;;;1.17;1.00;;;;;;;10.11;100.00;101988.94;5009578;28;20041;-67
2021/11/23 09:54:02;;;;;;;1.95;1.30;;;;;;;10.09;100.00;101980.34;5006519;28;20034;-68
2021/11/23 09:56:28;;;;;;;2.22;1.33;;;;;;;10.11;100.00;101985.44;5002223;28;20403;-68
2021/11/23 09:58:55;;;;;;;4.75;1.58;;;;;;;10.10;100.00;101981.97;5011306;28;20109;-67
2021/11/23 10:01:27;;;;;;;2.10;1.20;;;;;;;10.15;100.00;101981.00;5010385;28;20040;-68
2021/11/23 10:03:54;;;;;;;4.05;2.63;;;;;;;10.17;100.00;101976.91;5006767;28;20045;-68
2021/11/23 10:06:24;;;;;;;1.55;1.30;;;;;;;10.15;100.00;101979.13;4992793;28;20499;-67
2021/11/23 10:08:52;;;;;;;3.15;1.52;;;;;;;10.14;100.00;101972.16;4994230;28;20053;-67
2021/11/23 10:11:26;;;;;;;2.38;1.40;;;;;;;10.20;100.00;101975.47;5006780;28;20045;-68
2021/11/23 10:13:54;;;;;;;1.58;1.10;;;;;;;10.27;100.00;101975.78;4993843;28;20065;-67
2021/11/23 10:16:21;;;;;;;3.38;1.13;;;;;;;10.29;100.00;101990.50;4993406;28;20028;-68
2021/11/23 10:18:50;;;;;;;3.22;1.27;;;;;;;10.42;100.00;101977.94;5007872;28;20029;-67
2021/11/23 10:21:19;;;;;;;5.60;1.38;;;;;;;10.48;100.00;101972.09;4990505;28;20425;-68
2021/11/23 10:23:48;;;;;;;7.55;2.33;;;;;;;10.60;100.00;101969.53;4990376;28;20113;-68
2021/11/23 10:26:21;;;;;;;4.50;1.35;;;;;;;10.64;100.00;101972.34;4990802;28;20034;-68
2021/11/23 10:28:52;;;;;;;2.85;1.30;;;;;;;10.65;100.00;101973.91;5010813;28;20116;-66
2021/11/23 10:31:19;;;;;;;5.22;1.50;;;;;;;10.71;100.00;101973.44;5005304;28;20041;-67
2021/11/23 10:33:45;;;;;;;4.40;1.63;;;;;;;10.73;100.00;101973.91;5010676;28;20037;-69
2021/11/23 10:36:15;;;;;;;3.17;1.40;;;;;;;10.72;100.00;101969.63;5007621;28;20038;-67
2021/11/23 10:38:41;;;;;;;7.60;1.38;;;;;;;10.74;100.00;101978.16;4990586;28;20049;-67
2021/11/23 10:41:11;;;;;;;4.15;1.77;;;;;;;10.77;100.00;101968.66;5005545;28;20065;-67
2021/11/23 10:43:39;;;;;;;2.22;1.50;;;;;;;10.89;100.00;101974.16;4991232;28;20034;-69
2021/11/23 10:46:18;;;;;;;3.35;1.05;;;;;;;10.96;100.00;101969.03;4981816;28;20038;-68
2021/11/23 10:48:55;;;;;;;4.45;2.05;;;;;;;11.00;100.00;101979.97;5011539;28;20037;-66
2021/11/23 10:51:22;;;;;;;3.65;1.33;;;;;;;10.97;100.00;101975.22;5010475;28;20121;-67
2021/11/23 10:53:49;;;;;;;8.55;3.13;;;;;;;11.00;100.00;101966.47;5005501;28;20058;-68
2021/11/23 10:56:18;;;;;;;4.45;2.00;;;;;;;11.01;100.00;101968.88;5009909;28;20037;-68
2021/11/23 10:58:46;;;;;;;10.77;1.92;;;;;;;11.02;100.00;101973.13;5013616;28;20044;-67
2021/11/23 11:01:13;;;;;;;3.35;1.73;;;;;;;11.02;100.00;101975.03;5010771;28;20404;-66
2021/11/23 11:03:40;;;;;;;3.03;2.28;;;;;;;11.02;100.00;101967.75;5014879;28;20101;-68
2021/11/23 11:06:07;;;;;;;3.45;1.38;;;;;;;10.97;100.00;101970.63;5014924;28;20033;-67
2021/11/23 11:08:37;;;;;;;6.82;1.77;;;;;;;11.07;100.00;101956.75;5013572;28;20025;-67
2021/11/23 11:11:04;;;;;;;5.10;1.52;;;;;;;11.13;100.00;101962.78;5009885;28;20470;-67
2021/11/23 11:13:31;;;;;;;3.47;1.58;;;;;;;11.13;100.00;101960.09;5015076;28;20573;-66
2021/11/23 11:15:58;;;;;;;2.53;1.40;;;;;;;11.21;100.00;101964.63;5014519;28;20038;-68
2021/11/23 11:18:24;;;;;;;3.00;1.45;;;;;;;11.15;100.00;101964.03;5011196;28;20033;-67
2021/11/23 11:21:02;;;;;;;1.70;1.10;;;;;;;11.11;100.00;101955.00;5013042;28;20523;-67
2021/11/23 11:23:31;;;;;;;3.40;1.30;;;;;;;11.09;100.00;101967.25;4997532;28;20112;-67